sensor_id;sensor_type;location;lat;lon;timestamp;P1;durP1;ratioP1;P2;durP2;ratioP2
19113;SDS011;9689;51.052;13.772;2024-02-16T00:03:31;21.92;;;9.43;;
19113;SDS011;9689;51.052;13.772;2024-02-16T00:08:32;17.52;;;9.35;;
19113;SDS011;9689;51.052;13.772;2024-02-16T00:13:35;22.55;;;9.02;;
19113;SDS011;9689;51.052;13.772;2024-02-16T00:18:36;19.23;;;9.30;;
19113;SDS011;9689;51.052;13.772;2024-02-16T00:23:37;17.13;;;8.80;;
19113;SDS011;9689;51.052;13.772;2024-02-16T00:28:39;16.95;;;8.73;;
19113;SDS011;9689;51.052;13.772;2024-02-16T00:33:41;14.15;;;8.35;;
19113;SDS011;9689;51.052;13.772;2024-02-16T00:38:42;18.58;;;8.77;;
19113;SDS011;9689;51.052;13.772;2024-02-16T00:43:44;18.73;;;8.48;;
19113;SDS011;9689;51.052;13.772;2024-02-16T00:48:45;15.75;;;8.45;;
19113;SDS011;9689;51.052;13.772;2024-02-16T00:53:46;20.60;;;9.13;;
19113;SDS011;9689;51.052;13.772;2024-02-16T00:58:49;15.55;;;8.25;;
19113;SDS011;9689;51.052;13.772;2024-02-16T01:03:49;17.33;;;8.75;;
19113;SDS011;9689;51.052;13.772;2024-02-16T01:08:51;19.13;;;9.13;;
19113;SDS011;9689;51.052;13.772;2024-02-16T01:13:53;16.63;;;8.65;;
19113;SDS011;9689;51.052;13.772;2024-02-16T01:18:54;19.27;;;9.48;;
19113;SDS011;9689;51.052;13.772;2024-02-16T01:23:56;18.75;;;9.63;;
19113;SDS011;9689;51.052;13.772;2024-02-16T01:29:00;21.08;;;10.50;;
19113;SDS011;9689;51.052;13.772;2024-02-16T01:34:01;23.75;;;10.27;;
19113;SDS011;9689;51.052;13.772;2024-02-16T01:39:02;21.35;;;10.82;;
19113;SDS011;9689;51.052;13.772;2024-02-16T01:44:05;21.00;;;10.90;;
19113;SDS011;9689;51.052;13.772;2024-02-16T01:49:06;18.63;;;11.50;;
19113;SDS011;9689;51.052;13.772;2024-02-16T01:54:07;22.90;;;11.40;;
19113;SDS011;9689;51.052;13.772;2024-02-16T01:59:09;24.35;;;12.20;;
19113;SDS011;9689;51.052;13.772;2024-02-16T02:04:10;22.98;;;12.27;;
19113;SDS011;9689;51.052;13.772;2024-02-16T02:09:11;20.70;;;11.25;;
19113;SDS011;9689;51.052;13.772;2024-02-16T02:14:13;22.65;;;11.65;;
19113;SDS011;9689;51.052;13.772;2024-02-16T02:19:14;19.63;;;11.88;;
19113;SDS011;9689;51.052;13.772;2024-02-16T02:24:16;20.98;;;11.60;;
19113;SDS011;9689;51.052;13.772;2024-02-16T02:29:17;23.67;;;11.95;;
19113;SDS011;9689;51.052;13.772;2024-02-16T02:34:19;20.60;;;11.25;;
19113;SDS011;9689;51.052;13.772;2024-02-16T02:39:21;22.05;;;12.20;;
19113;SDS011;9689;51.052;13.772;2024-02-16T02:44:22;22.83;;;11.60;;
19113;SDS011;9689;51.052;13.772;2024-02-16T02:49:23;24.77;;;12.93;;
19113;SDS011;9689;51.052;13.772;2024-02-16T02:54:25;21.02;;;11.13;;
19113;SDS011;9689;51.052;13.772;2024-02-16T02:59:26;24.38;;;12.50;;
19113;SDS011;9689;51.052;13.772;2024-02-16T03:04:26;24.85;;;13.32;;
19113;SDS011;9689;51.052;13.772;2024-02-16T03:09:29;26.10;;;13.27;;
19113;SDS011;9689;51.052;13.772;2024-02-16T03:14:30;20.17;;;12.38;;
19113;SDS011;9689;51.052;13.772;2024-02-16T03:19:30;28.75;;;13.68;;
19113;SDS011;9689;51.052;13.772;2024-02-16T03:24:33;24.58;;;12.93;;
19113;SDS011;9689;51.052;13.772;2024-02-16T03:29:34;27.85;;;13.88;;
19113;SDS011;9689;51.052;13.772;2024-02-16T03:34:34;25.13;;;13.38;;
19113;SDS011;9689;51.052;13.772;2024-02-16T03:39:37;24.45;;;13.57;;
19113;SDS011;9689;51.052;13.772;2024-02-16T03:44:37;19.52;;;12.43;;
19113;SDS011;9689;51.052;13.772;2024-02-16T03:49:38;21.30;;;13.43;;
19113;SDS011;9689;51.052;13.772;2024-02-16T03:54:41;24.98;;;13.95;;
19113;SDS011;9689;51.052;13.772;2024-02-16T03:59:43;25.05;;;14.50;;
19113;SDS011;9689;51.052;13.772;2024-02-16T04:04:44;26.00;;;14.63;;
19113;SDS011;9689;51.052;13.772;2024-02-16T04:09:46;26.33;;;14.88;;
19113;SDS011;9689;51.052;13.772;2024-02-16T04:14:47;24.67;;;14.02;;
19113;SDS011;9689;51.052;13.772;2024-02-16T04:19:47;31.58;;;16.02;;
19113;SDS011;9689;51.052;13.772;2024-02-16T04:24:50;27.48;;;15.38;;
19113;SDS011;9689;51.052;13.772;2024-02-16T04:29:50;31.67;;;16.45;;
19113;SDS011;9689;51.052;13.772;2024-02-16T04:34:51;26.77;;;15.25;;
19113;SDS011;9689;51.052;13.772;2024-02-16T04:39:54;24.08;;;14.35;;
19113;SDS011;9689;51.052;13.772;2024-02-16T04:44:54;23.48;;;14.60;;
19113;SDS011;9689;51.052;13.772;2024-02-16T04:49:55;24.60;;;15.35;;
19113;SDS011;9689;51.052;13.772;2024-02-16T04:54:57;26.48;;;15.35;;
19113;SDS011;9689;51.052;13.772;2024-02-16T04:59:58;26.73;;;15.43;;
19113;SDS011;9689;51.052;13.772;2024-02-16T05:04:59;27.33;;;14.98;;
19113;SDS011;9689;51.052;13.772;2024-02-16T05:10:07;28.48;;;15.15;;
19113;SDS011;9689;51.052;13.772;2024-02-16T05:15:09;29.13;;;15.93;;
19113;SDS011;9689;51.052;13.772;2024-02-16T05:20:12;27.35;;;16.13;;
19113;SDS011;9689;51.052;13.772;2024-02-16T05:25:17;25.00;;;15.98;;
19113;SDS011;9689;51.052;13.772;2024-02-16T05:30:18;27.33;;;15.45;;
19113;SDS011;9689;51.052;13.772;2024-02-16T05:35:19;25.25;;;14.98;;
19113;SDS011;9689;51.052;13.772;2024-02-16T05:40:21;28.35;;;14.90;;
19113;SDS011;9689;51.052;13.772;2024-02-16T05:45:24;28.67;;;15.75;;
19113;SDS011;9689;51.052;13.772;2024-02-16T05:50:26;23.65;;;14.85;;
19113;SDS011;9689;51.052;13.772;2024-02-16T05:55:28;27.50;;;16.20;;
19113;SDS011;9689;51.052;13.772;2024-02-16T06:00:31;28.67;;;16.15;;
19113;SDS011;9689;51.052;13.772;2024-02-16T06:05:33;26.33;;;16.00;;
19113;SDS011;9689;51.052;13.772;2024-02-16T06:10:35;25.85;;;16.08;;
19113;SDS011;9689;51.052;13.772;2024-02-16T06:15:36;27.30;;;15.60;;
19113;SDS011;9689;51.052;13.772;2024-02-16T06:20:37;33.17;;;16.58;;
19113;SDS011;9689;51.052;13.772;2024-02-16T06:25:39;29.17;;;15.65;;
19113;SDS011;9689;51.052;13.772;2024-02-16T06:30:41;31.58;;;15.80;;
19113;SDS011;9689;51.052;13.772;2024-02-16T06:35:42;33.42;;;17.25;;
19113;SDS011;9689;51.052;13.772;2024-02-16T06:40:44;30.38;;;17.45;;
19113;SDS011;9689;51.052;13.772;2024-02-16T06:45:44;30.48;;;16.90;;
19113;SDS011;9689;51.052;13.772;2024-02-16T06:50:46;31.23;;;17.08;;
19113;SDS011;9689;51.052;13.772;2024-02-16T06:55:48;31.75;;;17.55;;
19113;SDS011;9689;51.052;13.772;2024-02-16T07:00:50;29.27;;;16.58;;
19113;SDS011;9689;51.052;13.772;2024-02-16T07:05:51;30.52;;;16.90;;
19113;SDS011;9689;51.052;13.772;2024-02-16T07:10:53;32.45;;;17.38;;
19113;SDS011;9689;51.052;13.772;2024-02-16T07:15:54;29.50;;;17.13;;
19113;SDS011;9689;51.052;13.772;2024-02-16T07:20:55;32.92;;;17.92;;
19113;SDS011;9689;51.052;13.772;2024-02-16T07:25:58;32.15;;;17.10;;
19113;SDS011;9689;51.052;13.772;2024-02-16T07:31:05;32.75;;;17.63;;
19113;SDS011;9689;51.052;13.772;2024-02-16T07:36:06;34.25;;;18.33;;
19113;SDS011;9689;51.052;13.772;2024-02-16T07:41:09;29.90;;;17.30;;
19113;SDS011;9689;51.052;13.772;2024-02-16T07:46:10;30.63;;;15.95;;
19113;SDS011;9689;51.052;13.772;2024-02-16T07:51:11;35.42;;;17.50;;
19113;SDS011;9689;51.052;13.772;2024-02-16T07:56:13;27.23;;;15.88;;
19113;SDS011;9689;51.052;13.772;2024-02-16T08:01:15;27.90;;;15.98;;
19113;SDS011;9689;51.052;13.772;2024-02-16T08:06:15;28.80;;;15.52;;
19113;SDS011;9689;51.052;13.772;2024-02-16T08:11:21;34.08;;;17.25;;
19113;SDS011;9689;51.052;13.772;2024-02-16T08:16:23;25.95;;;14.95;;
19113;SDS011;9689;51.052;13.772;2024-02-16T08:21:23;25.20;;;15.90;;
19113;SDS011;9689;51.052;13.772;2024-02-16T08:26:26;28.60;;;14.75;;
19113;SDS011;9689;51.052;13.772;2024-02-16T08:31:27;23.98;;;14.18;;
19113;SDS011;9689;51.052;13.772;2024-02-16T08:36:28;24.38;;;15.15;;
19113;SDS011;9689;51.052;13.772;2024-02-16T08:41:31;23.52;;;14.38;;
19113;SDS011;9689;51.052;13.772;2024-02-16T08:46:31;26.95;;;15.52;;
19113;SDS011;9689;51.052;13.772;2024-02-16T08:51:32;29.02;;;15.88;;
19113;SDS011;9689;51.052;13.772;2024-02-16T08:56:35;29.10;;;16.48;;
19113;SDS011;9689;51.052;13.772;2024-02-16T09:01:38;32.42;;;17.67;;
19113;SDS011;9689;51.052;13.772;2024-02-16T09:06:39;26.90;;;15.98;;
19113;SDS011;9689;51.052;13.772;2024-02-16T09:11:41;29.70;;;16.48;;
19113;SDS011;9689;51.052;13.772;2024-02-16T09:16:42;25.88;;;14.57;;
19113;SDS011;9689;51.052;13.772;2024-02-16T09:21:43;27.92;;;15.25;;
19113;SDS011;9689;51.052;13.772;2024-02-16T09:26:45;24.75;;;14.98;;
19113;SDS011;9689;51.052;13.772;2024-02-16T09:31:48;24.55;;;14.70;;
19113;SDS011;9689;51.052;13.772;2024-02-16T09:36:49;26.83;;;15.43;;
19113;SDS011;9689;51.052;13.772;2024-02-16T09:41:51;26.17;;;15.38;;
19113;SDS011;9689;51.052;13.772;2024-02-16T09:46:53;24.70;;;14.75;;
19113;SDS011;9689;51.052;13.772;2024-02-16T09:51:55;25.65;;;15.20;;
19113;SDS011;9689;51.052;13.772;2024-02-16T09:57:01;25.65;;;15.38;;
19113;SDS011;9689;51.052;13.772;2024-02-16T10:02:04;23.75;;;14.77;;
19113;SDS011;9689;51.052;13.772;2024-02-16T10:07:07;30.80;;;15.02;;
19113;SDS011;9689;51.052;13.772;2024-02-16T10:12:18;26.65;;;14.32;;
19113;SDS011;9689;51.052;13.772;2024-02-16T10:17:20;26.45;;;15.45;;
19113;SDS011;9689;51.052;13.772;2024-02-16T10:22:20;26.25;;;14.43;;
19113;SDS011;9689;51.052;13.772;2024-02-16T10:27:23;22.88;;;14.23;;
19113;SDS011;9689;51.052;13.772;2024-02-16T10:32:24;25.45;;;14.20;;
19113;SDS011;9689;51.052;13.772;2024-02-16T10:37:25;24.30;;;14.40;;
19113;SDS011;9689;51.052;13.772;2024-02-16T10:42:29;29.83;;;15.68;;
19113;SDS011;9689;51.052;13.772;2024-02-16T10:47:31;24.23;;;14.05;;
19113;SDS011;9689;51.052;13.772;2024-02-16T10:52:32;29.85;;;15.07;;
19113;SDS011;9689;51.052;13.772;2024-02-16T10:57:36;21.95;;;13.52;;
19113;SDS011;9689;51.052;13.772;2024-02-16T11:02:52;22.05;;;13.93;;
19113;SDS011;9689;51.052;13.772;2024-02-16T11:07:59;26.70;;;14.25;;
19113;SDS011;9689;51.052;13.772;2024-02-16T11:13:03;26.73;;;13.55;;
19113;SDS011;9689;51.052;13.772;2024-02-16T11:18:04;24.08;;;14.90;;
19113;SDS011;9689;51.052;13.772;2024-02-16T11:23:06;25.63;;;15.27;;
19113;SDS011;9689;51.052;13.772;2024-02-16T11:28:10;25.92;;;15.07;;
19113;SDS011;9689;51.052;13.772;2024-02-16T11:33:14;20.50;;;14.10;;
19113;SDS011;9689;51.052;13.772;2024-02-16T11:38:15;23.55;;;14.05;;
19113;SDS011;9689;51.052;13.772;2024-02-16T11:43:21;23.40;;;13.35;;
19113;SDS011;9689;51.052;13.772;2024-02-16T11:48:23;21.67;;;13.15;;
19113;SDS011;9689;51.052;13.772;2024-02-16T11:53:25;20.83;;;13.73;;
19113;SDS011;9689;51.052;13.772;2024-02-16T11:58:27;20.27;;;13.63;;
19113;SDS011;9689;51.052;13.772;2024-02-16T12:03:30;20.15;;;14.57;;
19113;SDS011;9689;51.052;13.772;2024-02-16T12:08:32;26.80;;;14.68;;
19113;SDS011;9689;51.052;13.772;2024-02-16T12:13:35;22.95;;;13.88;;
19113;SDS011;9689;51.052;13.772;2024-02-16T12:18:35;23.92;;;14.73;;
19113;SDS011;9689;51.052;13.772;2024-02-16T12:23:36;26.40;;;14.18;;
19113;SDS011;9689;51.052;13.772;2024-02-16T12:28:38;22.40;;;13.10;;
19113;SDS011;9689;51.052;13.772;2024-02-16T12:33:40;23.15;;;14.10;;
19113;SDS011;9689;51.052;13.772;2024-02-16T12:38:41;21.35;;;13.30;;
19113;SDS011;9689;51.052;13.772;2024-02-16T12:43:43;20.40;;;12.75;;
19113;SDS011;9689;51.052;13.772;2024-02-16T12:48:44;18.55;;;12.10;;
19113;SDS011;9689;51.052;13.772;2024-02-16T12:53:48;23.02;;;12.77;;
19113;SDS011;9689;51.052;13.772;2024-02-16T12:58:50;20.20;;;12.75;;
19113;SDS011;9689;51.052;13.772;2024-02-16T13:03:51;21.73;;;12.52;;
19113;SDS011;9689;51.052;13.772;2024-02-16T13:08:52;18.85;;;11.30;;
19113;SDS011;9689;51.052;13.772;2024-02-16T13:13:55;20.58;;;10.02;;
19113;SDS011;9689;51.052;13.772;2024-02-16T13:18:55;17.83;;;9.38;;
19113;SDS011;9689;51.052;13.772;2024-02-16T13:23:56;16.23;;;10.07;;
19113;SDS011;9689;51.052;13.772;2024-02-16T13:28:59;16.52;;;9.23;;
19113;SDS011;9689;51.052;13.772;2024-02-16T13:34:00;16.30;;;9.90;;
19113;SDS011;9689;51.052;13.772;2024-02-16T13:39:01;16.65;;;10.48;;
19113;SDS011;9689;51.052;13.772;2024-02-16T13:44:03;16.63;;;10.20;;
19113;SDS011;9689;51.052;13.772;2024-02-16T13:49:04;20.00;;;11.57;;
19113;SDS011;9689;51.052;13.772;2024-02-16T13:54:05;17.58;;;11.13;;
19113;SDS011;9689;51.052;13.772;2024-02-16T13:59:07;18.63;;;11.60;;
19113;SDS011;9689;51.052;13.772;2024-02-16T14:04:08;19.27;;;10.85;;
19113;SDS011;9689;51.052;13.772;2024-02-16T14:09:09;22.60;;;12.38;;
19113;SDS011;9689;51.052;13.772;2024-02-16T14:14:27;19.40;;;13.30;;
19113;SDS011;9689;51.052;13.772;2024-02-16T14:19:36;23.33;;;14.65;;
19113;SDS011;9689;51.052;13.772;2024-02-16T14:24:38;26.60;;;16.38;;
19113;SDS011;9689;51.052;13.772;2024-02-16T14:29:40;22.83;;;14.27;;
19113;SDS011;9689;51.052;13.772;2024-02-16T14:34:41;24.40;;;15.38;;
19113;SDS011;9689;51.052;13.772;2024-02-16T14:39:44;27.92;;;16.05;;
19113;SDS011;9689;51.052;13.772;2024-02-16T14:44:47;26.20;;;15.88;;
19113;SDS011;9689;51.052;13.772;2024-02-16T14:49:53;33.55;;;17.70;;
19113;SDS011;9689;51.052;13.772;2024-02-16T14:54:54;30.35;;;18.75;;
19113;SDS011;9689;51.052;13.772;2024-02-16T14:59:57;28.27;;;17.85;;
19113;SDS011;9689;51.052;13.772;2024-02-16T15:04:58;32.90;;;17.98;;
19113;SDS011;9689;51.052;13.772;2024-02-16T15:09:59;34.95;;;19.83;;
19113;SDS011;9689;51.052;13.772;2024-02-16T15:15:01;37.70;;;20.23;;
19113;SDS011;9689;51.052;13.772;2024-02-16T15:20:03;36.55;;;19.77;;
19113;SDS011;9689;51.052;13.772;2024-02-16T15:25:05;31.42;;;17.65;;
19113;SDS011;9689;51.052;13.772;2024-02-16T15:30:08;32.30;;;18.92;;
19113;SDS011;9689;51.052;13.772;2024-02-16T15:35:09;31.00;;;17.63;;
19113;SDS011;9689;51.052;13.772;2024-02-16T15:40:18;33.70;;;18.60;;
19113;SDS011;9689;51.052;13.772;2024-02-16T15:45:22;29.65;;;17.73;;
19113;SDS011;9689;51.052;13.772;2024-02-16T15:50:23;27.85;;;16.90;;
19113;SDS011;9689;51.052;13.772;2024-02-16T15:55:25;37.10;;;18.90;;
19113;SDS011;9689;51.052;13.772;2024-02-16T16:00:27;34.50;;;18.63;;
19113;SDS011;9689;51.052;13.772;2024-02-16T16:05:28;33.60;;;18.38;;
19113;SDS011;9689;51.052;13.772;2024-02-16T16:10:30;34.97;;;19.20;;
19113;SDS011;9689;51.052;13.772;2024-02-16T16:15:32;33.25;;;18.85;;
19113;SDS011;9689;51.052;13.772;2024-02-16T16:20:33;37.50;;;20.20;;
19113;SDS011;9689;51.052;13.772;2024-02-16T16:25:35;32.85;;;19.10;;
19113;SDS011;9689;51.052;13.772;2024-02-16T16:30:38;33.65;;;19.73;;
19113;SDS011;9689;51.052;13.772;2024-02-16T16:35:38;38.42;;;20.38;;
19113;SDS011;9689;51.052;13.772;2024-02-16T16:40:39;35.47;;;20.60;;
19113;SDS011;9689;51.052;13.772;2024-02-16T16:45:42;35.25;;;20.08;;
19113;SDS011;9689;51.052;13.772;2024-02-16T16:50:43;34.97;;;19.33;;
19113;SDS011;9689;51.052;13.772;2024-02-16T16:55:44;38.60;;;19.85;;
19113;SDS011;9689;51.052;13.772;2024-02-16T17:00:46;35.63;;;19.42;;
19113;SDS011;9689;51.052;13.772;2024-02-16T17:05:49;35.45;;;18.38;;
19113;SDS011;9689;51.052;13.772;2024-02-16T17:10:50;33.35;;;17.42;;
19113;SDS011;9689;51.052;13.772;2024-02-16T17:15:52;35.35;;;18.83;;
19113;SDS011;9689;51.052;13.772;2024-02-16T17:20:54;32.25;;;19.17;;
19113;SDS011;9689;51.052;13.772;2024-02-16T17:25:55;38.75;;;20.45;;
19113;SDS011;9689;51.052;13.772;2024-02-16T17:31:00;37.17;;;18.55;;
19113;SDS011;9689;51.052;13.772;2024-02-16T17:36:00;32.95;;;18.35;;
19113;SDS011;9689;51.052;13.772;2024-02-16T17:41:01;33.85;;;20.08;;
19113;SDS011;9689;51.052;13.772;2024-02-16T17:46:04;34.08;;;19.05;;
19113;SDS011;9689;51.052;13.772;2024-02-16T17:51:05;34.63;;;19.13;;
19113;SDS011;9689;51.052;13.772;2024-02-16T17:56:08;32.03;;;19.63;;
19113;SDS011;9689;51.052;13.772;2024-02-16T18:01:11;35.40;;;19.45;;
19113;SDS011;9689;51.052;13.772;2024-02-16T18:06:13;36.13;;;20.13;;
19113;SDS011;9689;51.052;13.772;2024-02-16T18:11:13;36.85;;;19.98;;
19113;SDS011;9689;51.052;13.772;2024-02-16T18:16:16;38.35;;;20.00;;
19113;SDS011;9689;51.052;13.772;2024-02-16T18:21:18;40.17;;;20.55;;
19113;SDS011;9689;51.052;13.772;2024-02-16T18:26:19;36.63;;;20.52;;
19113;SDS011;9689;51.052;13.772;2024-02-16T18:31:22;31.67;;;18.92;;
19113;SDS011;9689;51.052;13.772;2024-02-16T18:36:23;37.67;;;20.70;;
19113;SDS011;9689;51.052;13.772;2024-02-16T18:41:25;35.50;;;19.38;;
19113;SDS011;9689;51.052;13.772;2024-02-16T18:46:27;35.50;;;19.38;;
19113;SDS011;9689;51.052;13.772;2024-02-16T18:51:28;37.80;;;18.50;;
19113;SDS011;9689;51.052;13.772;2024-02-16T18:56:29;29.23;;;17.40;;
19113;SDS011;9689;51.052;13.772;2024-02-16T19:01:31;34.90;;;18.63;;
19113;SDS011;9689;51.052;13.772;2024-02-16T19:06:34;36.03;;;18.58;;
19113;SDS011;9689;51.052;13.772;2024-02-16T19:11:35;41.53;;;19.27;;
19113;SDS011;9689;51.052;13.772;2024-02-16T19:16:37;35.60;;;18.73;;
19113;SDS011;9689;51.052;13.772;2024-02-16T19:21:38;35.42;;;17.90;;
19113;SDS011;9689;51.052;13.772;2024-02-16T19:26:38;36.20;;;18.77;;
19113;SDS011;9689;51.052;13.772;2024-02-16T19:31:41;33.08;;;17.67;;
19113;SDS011;9689;51.052;13.772;2024-02-16T19:36:42;34.17;;;17.45;;
19113;SDS011;9689;51.052;13.772;2024-02-16T19:41:46;33.55;;;18.40;;
19113;SDS011;9689;51.052;13.772;2024-02-16T19:46:48;32.63;;;18.33;;
19113;SDS011;9689;51.052;13.772;2024-02-16T19:51:49;27.52;;;16.27;;
19113;SDS011;9689;51.052;13.772;2024-02-16T19:56:50;32.30;;;17.50;;
19113;SDS011;9689;51.052;13.772;2024-02-16T20:01:52;30.35;;;17.52;;
19113;SDS011;9689;51.052;13.772;2024-02-16T20:06:53;35.78;;;17.65;;
19113;SDS011;9689;51.052;13.772;2024-02-16T20:11:54;32.92;;;18.65;;
19113;SDS011;9689;51.052;13.772;2024-02-16T20:16:56;35.60;;;18.05;;
19113;SDS011;9689;51.052;13.772;2024-02-16T20:21:57;32.15;;;17.27;;
19113;SDS011;9689;51.052;13.772;2024-02-16T20:26:58;33.40;;;18.73;;
19113;SDS011;9689;51.052;13.772;2024-02-16T20:32:02;34.50;;;18.40;;
19113;SDS011;9689;51.052;13.772;2024-02-16T20:37:04;35.75;;;18.42;;
19113;SDS011;9689;51.052;13.772;2024-02-16T20:42:05;34.05;;;17.25;;
19113;SDS011;9689;51.052;13.772;2024-02-16T20:47:07;32.45;;;17.67;;
19113;SDS011;9689;51.052;13.772;2024-02-16T20:52:08;31.13;;;18.02;;
19113;SDS011;9689;51.052;13.772;2024-02-16T20:57:09;31.85;;;18.83;;
19113;SDS011;9689;51.052;13.772;2024-02-16T21:02:11;37.50;;;18.30;;
19113;SDS011;9689;51.052;13.772;2024-02-16T21:07:16;39.40;;;19.67;;
19113;SDS011;9689;51.052;13.772;2024-02-16T21:12:17;36.58;;;18.67;;
19113;SDS011;9689;51.052;13.772;2024-02-16T21:17:20;36.67;;;19.63;;
19113;SDS011;9689;51.052;13.772;2024-02-16T21:22:21;35.80;;;18.67;;
19113;SDS011;9689;51.052;13.772;2024-02-16T21:27:21;32.22;;;16.63;;
19113;SDS011;9689;51.052;13.772;2024-02-16T21:32:25;32.05;;;18.23;;
19113;SDS011;9689;51.052;13.772;2024-02-16T21:37:26;33.70;;;17.52;;
19113;SDS011;9689;51.052;13.772;2024-02-16T21:42:29;34.08;;;17.20;;
19113;SDS011;9689;51.052;13.772;2024-02-16T21:47:31;32.50;;;17.77;;
19113;SDS011;9689;51.052;13.772;2024-02-16T21:52:33;32.58;;;18.02;;
19113;SDS011;9689;51.052;13.772;2024-02-16T21:57:34;31.08;;;17.27;;
19113;SDS011;9689;51.052;13.772;2024-02-16T22:02:36;34.90;;;18.05;;
19113;SDS011;9689;51.052;13.772;2024-02-16T22:07:37;29.85;;;17.05;;
19113;SDS011;9689;51.052;13.772;2024-02-16T22:12:38;32.55;;;17.40;;
19113;SDS011;9689;51.052;13.772;2024-02-16T22:17:40;31.15;;;17.42;;
19113;SDS011;9689;51.052;13.772;2024-02-16T22:22:41;34.58;;;17.60;;
19113;SDS011;9689;51.052;13.772;2024-02-16T22:27:41;32.58;;;17.92;;
19113;SDS011;9689;51.052;13.772;2024-02-16T22:32:44;36.28;;;19.08;;
19113;SDS011;9689;51.052;13.772;2024-02-16T22:37:44;35.42;;;18.58;;
19113;SDS011;9689;51.052;13.772;2024-02-16T22:42:45;30.52;;;18.02;;
19113;SDS011;9689;51.052;13.772;2024-02-16T22:47:47;31.98;;;16.42;;
19113;SDS011;9689;51.052;13.772;2024-02-16T22:52:48;32.50;;;16.45;;
19113;SDS011;9689;51.052;13.772;2024-02-16T22:57:49;30.50;;;17.13;;
19113;SDS011;9689;51.052;13.772;2024-02-16T23:02:52;34.90;;;16.95;;
19113;SDS011;9689;51.052;13.772;2024-02-16T23:07:53;36.90;;;17.50;;
19113;SDS011;9689;51.052;13.772;2024-02-16T23:12:54;30.75;;;17.00;;
19113;SDS011;9689;51.052;13.772;2024-02-16T23:17:58;29.10;;;16.40;;
19113;SDS011;9689;51.052;13.772;2024-02-16T23:23:00;33.53;;;17.38;;
19113;SDS011;9689;51.052;13.772;2024-02-16T23:28:04;30.70;;;16.75;;
19113;SDS011;9689;51.052;13.772;2024-02-16T23:33:08;31.73;;;17.95;;
19113;SDS011;9689;51.052;13.772;2024-02-16T23:38:10;34.50;;;18.58;;
19113;SDS011;9689;51.052;13.772;2024-02-16T23:43:12;31.10;;;17.10;;
19113;SDS011;9689;51.052;13.772;2024-02-16T23:48:15;26.27;;;16.48;;
19113;SDS011;9689;51.052;13.772;2024-02-16T23:53:16;32.22;;;17.45;;
19113;SDS011;9689;51.052;13.772;2024-02-16T23:58:17;32.70;;;16.45;;
